66R

Robert R Wells Jr Airport

Columbus, Texas, USA
METAR K66R 171435Z AUTO 22005KT 10SM BKN011 OVC016 29/25 A3010 RMK AO2 T02850251
Observed Flight Rules
Aug-17 @ 14:35 UTC (21 minutes ago) Marginal Visual Flight Rules
Wind Visibility Clouds
220° at 5 knots 10 miles
  • Broken at 1,100' AGL
  • Overcast at 1,600' AGL
Temperatures Readings
Current 29°C / 84°F
Dewpoint 25°C / 77°F
Humidity 79%
Altimeter 30.1" Hg
Pressure 1019 hPa
Elevation 74
METAR K66R 171435Z AUTO 22005KT 10SM BKN011 OVC016 29/25 A3010 RMK AO2 T02850251
Observed Flight Rules
Aug-17 @ 14:35 UTC
(21 minutes ago)
MVFR
Wind Visibility
220° at 5 knots 10 miles
Clouds
  • Broken at 1,100' AGL
  • Overcast at 1,600' AGL
Temperature Dewpoint
29°C / 84°F 25°C / 77°F
Humidity Altimeter Pressure
79% 30.1" Hg 1019 hPa